Time;durP1;ratioP1;P1;durP2;ratioP2;P2;SDS_P1;SDS_P2;PMS_P1;PMS_P2;Temp;Humidity;BMP_temperature;BMP_pressure;BME280_temperature;BME280_humidity;BME280_pressure;Samples;Min_cycle;Max_cycle;Signal;HPM_P1;HPM_P2
2022/03/08 00:01:02;;;;;;;18.20;11.67;;;;;;;;;;5013042;28;20096;-68
2022/03/08 00:03:28;;;;;;;21.43;12.63;;;;;;;;;;5012504;28;20129;-68
2022/03/08 00:05:54;;;;;;;16.20;10.63;;;2.00;99.90;;;;;;5010442;28;20068;-68
2022/03/08 00:08:20;;;;;;;15.53;10.83;;;2.00;99.90;;;;;;5011766;28;20033;-68
2022/03/08 00:10:46;;;;;;;17.33;11.67;;;2.00;99.90;;;;;;5012717;28;20390;-68
2022/03/08 00:13:11;;;;;;;16.67;11.00;;;1.90;99.90;;;;;;5012359;28;20128;-67
2022/03/08 00:15:37;;;;;;;17.63;10.80;;;;;;;;;;5012845;28;20085;-67
2022/03/08 00:18:03;;;;;;;16.53;11.27;;;1.90;99.90;;;;;;5012448;28;20022;-68
2022/03/08 00:20:30;;;;;;;16.30;11.30;;;2.00;99.90;;;;;;5012408;28;20028;-67
2022/03/08 00:22:56;;;;;;;16.27;11.53;;;;;;;;;;5012319;28;20026;-67
2022/03/08 00:25:22;;;;;;;19.13;10.70;;;1.80;99.90;;;;;;5012790;28;20084;-68
2022/03/08 00:27:48;;;;;;;15.73;10.97;;;;;;;;;;5012008;28;20442;-68
2022/03/08 00:30:20;;;;;;;16.33;10.07;;;2.00;99.90;;;;;;5012865;28;20084;-68
2022/03/08 00:32:46;;;;;;;16.03;11.37;;;1.90;99.90;;;;;;5012960;28;20034;-67
2022/03/08 00:35:12;;;;;;;16.57;10.77;;;;;;;;;;5011942;28;20597;-68
2022/03/08 00:37:38;;;;;;;15.47;10.87;;;1.80;99.90;;;;;;5012333;28;20064;-68
2022/03/08 00:40:09;;;;;;;16.00;10.20;;;1.90;99.90;;;;;;5012197;28;20026;-67
2022/03/08 00:42:35;;;;;;;17.37;11.37;;;;;;;;;;5012360;28;20549;-67
2022/03/08 00:45:01;;;;;;;15.73;10.13;;;1.70;99.90;;;;;;5012378;28;20042;-68
2022/03/08 00:47:27;;;;;;;14.67;9.30;;;;;;;;;;5012524;28;20038;-67
2022/03/08 00:49:53;;;;;;;16.27;11.17;;;1.70;99.90;;;;;;5011633;28;20427;-68
2022/03/08 00:52:19;;;;;;;15.50;10.73;;;1.90;99.90;;;;;;5011960;28;20026;-68
2022/03/08 00:54:44;;;;;;;14.37;9.60;;;1.70;99.90;;;;;;5011128;28;20608;-68
2022/03/08 00:57:10;;;;;;;14.23;9.73;;;1.80;99.90;;;;;;5011788;28;20113;-68
2022/03/08 00:59:35;;;;;;;14.87;10.97;;;1.60;99.90;;;;;;5011355;28;20038;-68
2022/03/08 01:02:01;;;;;;;16.33;11.27;;;1.60;99.90;;;;;;5010943;28;20054;-68
2022/03/08 01:04:27;;;;;;;15.30;9.97;;;;;;;;;;5011349;28;20535;-68
2022/03/08 01:06:52;;;;;;;13.70;9.53;;;1.80;99.90;;;;;;5012083;28;20030;-68
2022/03/08 01:09:18;;;;;;;15.17;10.33;;;;;;;;;;5011856;28;20026;-68
2022/03/08 01:11:44;;;;;;;18.13;9.60;;;1.40;99.90;;;;;;5010033;28;20137;-68
2022/03/08 01:14:09;;;;;;;14.03;10.30;;;1.40;99.90;;;;;;5011634;28;20407;-68
2022/03/08 01:16:36;;;;;;;13.47;9.80;;;1.20;99.90;;;;;;5010582;28;20030;-68
2022/03/08 01:19:04;;;;;;;17.93;9.87;;;1.30;99.90;;;;;;5011333;28;20025;-68
2022/03/08 01:21:29;;;;;;;17.67;9.23;;;1.40;99.90;;;;;;5011506;28;20029;-68
2022/03/08 01:23:55;;;;;;;17.57;10.73;;;1.40;99.90;;;;;;5010254;28;20125;-68
2022/03/08 01:26:20;;;;;;;18.27;11.20;;;1.30;99.90;;;;;;5010275;28;20018;-68
2022/03/08 01:28:46;;;;;;;13.33;9.93;;;;;;;;;;5010673;28;20163;-68
2022/03/08 01:31:12;;;;;;;14.53;10.30;;;1.10;99.90;;;;;;5011137;28;20088;-68
2022/03/08 01:33:38;;;;;;;12.73;8.93;;;0.90;99.90;;;;;;5011051;28;20101;-68
2022/03/08 01:36:04;;;;;;;13.90;8.93;;;1.00;99.90;;;;;;5010944;28;20032;-68
2022/03/08 01:38:29;;;;;;;15.97;10.17;;;1.00;99.90;;;;;;5011533;28;20075;-68
2022/03/08 01:40:55;;;;;;;14.10;8.73;;;0.60;99.90;;;;;;5011195;28;20026;-69
2022/03/08 01:43:21;;;;;;;15.77;8.37;;;;;;;;;;5011345;28;20026;-68
2022/03/08 01:45:46;;;;;;;14.10;9.80;;;0.60;99.90;;;;;;5011256;28;20033;-68
2022/03/08 01:48:12;;;;;;;13.77;8.73;;;0.80;99.90;;;;;;5010210;28;20041;-68
2022/03/08 01:50:37;;;;;;;18.30;9.23;;;0.60;99.90;;;;;;5011333;28;20052;-68
2022/03/08 01:53:03;;;;;;;14.90;9.40;;;0.80;99.90;;;;;;5010989;28;20112;-68
2022/03/08 01:55:29;;;;;;;16.03;10.13;;;1.10;99.90;;;;;;5011132;28;20026;-68
2022/03/08 01:57:55;;;;;;;13.83;9.27;;;0.60;99.90;;;;;;5010961;28;20084;-68
2022/03/08 02:00:27;;;;;;;16.63;9.97;;;0.70;99.90;;;;;;5011117;28;20426;-69
2022/03/08 02:02:54;;;;;;;13.03;8.43;;;0.60;99.90;;;;;;5010501;28;20045;-68
2022/03/08 02:05:20;;;;;;;13.23;9.37;;;0.70;99.90;;;;;;5009728;28;20092;-68
2022/03/08 02:07:46;;;;;;;12.67;8.90;;;0.80;99.90;;;;;;5010712;28;20438;-68
2022/03/08 02:10:11;;;;;;;11.60;7.97;;;0.60;99.90;;;;;;5010540;28;20029;-68
2022/03/08 02:12:37;;;;;;;14.10;9.83;;;0.60;99.90;;;;;;5011019;28;20108;-68
2022/03/08 02:15:14;;;;;;;10.90;7.77;;;0.60;99.90;;;;;;5010449;28;20080;-68
2022/03/08 02:17:40;;;;;;;13.47;8.40;;;0.50;99.90;;;;;;5010486;28;20050;-68
2022/03/08 02:20:07;;;;;;;14.73;8.37;;;0.60;99.90;;;;;;5010490;28;20022;-68
2022/03/08 02:22:32;;;;;;;13.50;8.03;;;1.00;99.90;;;;;;5010377;28;20598;-68
2022/03/08 02:24:58;;;;;;;11.73;8.43;;;0.40;99.90;;;;;;5010711;28;20042;-68
2022/03/08 02:27:24;;;;;;;10.03;7.23;;;0.60;99.90;;;;;;5010721;28;20025;-68
2022/03/08 02:29:51;;;;;;;16.63;8.53;;;0.40;99.90;;;;;;5010333;28;20112;-68
2022/03/08 02:32:17;;;;;;;11.60;7.97;;;;;;;;;;5010112;28;20029;-68
2022/03/08 02:34:42;;;;;;;12.97;7.73;;;0.10;99.90;;;;;;5010548;28;20022;-68
2022/03/08 02:37:09;;;;;;;14.20;8.97;;;0.40;99.90;;;;;;5008275;28;20227;-68
2022/03/08 02:39:35;;;;;;;11.87;7.63;;;0.60;99.90;;;;;;5010584;28;20030;-68
2022/03/08 02:42:02;;;;;;;12.90;8.33;;;0.40;99.90;;;;;;5010317;28;20041;-68
2022/03/08 02:44:28;;;;;;;12.70;8.20;;;;;;;;;;5008958;28;20045;-68
2022/03/08 02:46:53;;;;;;;10.50;6.97;;;0.40;99.90;;;;;;5009843;28;20096;-68
2022/03/08 02:49:19;;;;;;;13.77;7.90;;;;;;;;;;5010175;28;20058;-68
2022/03/08 02:51:46;;;;;;;12.97;7.27;;;0.20;99.90;;;;;;5010191;28;20454;-68
2022/03/08 02:54:12;;;;;;;11.43;8.03;;;0.20;99.90;;;;;;5009386;28;20426;-68
2022/03/08 02:56:37;;;;;;;10.00;6.67;;;0.40;99.90;;;;;;5010252;28;20058;-68
2022/03/08 02:59:03;;;;;;;12.53;7.80;;;0.40;99.90;;;;;;5009993;28;20380;-68
2022/03/08 03:01:29;;;;;;;10.90;7.23;;;0.20;99.90;;;;;;5009856;28;20029;-68
2022/03/08 03:03:55;;;;;;;10.63;7.30;;;;;;;;;;5009941;28;20038;-68
2022/03/08 03:06:20;;;;;;;9.70;7.03;;;0.40;99.90;;;;;;5008467;28;20046;-68
2022/03/08 03:08:46;;;;;;;9.80;6.57;;;0.30;99.90;;;;;;5010139;28;20069;-68
2022/03/08 03:11:11;;;;;;;13.43;7.63;;;0.20;99.90;;;;;;5009778;28;20037;-68
2022/03/08 03:13:37;;;;;;;8.87;6.00;;;0.30;99.90;;;;;;5010092;28;20095;-68
2022/03/08 03:16:03;;;;;;;13.80;6.87;;;;;;;;;;5009170;28;20064;-68
2022/03/08 03:18:28;;;;;;;9.33;6.20;;;0.10;99.90;;;;;;5010052;28;20113;-68
2022/03/08 03:20:54;;;;;;;8.70;5.07;;;;;;;;;;5009437;28;20034;-68
2022/03/08 03:23:20;;;;;;;9.27;6.10;;;0.10;99.90;;;;;;5012037;28;20049;-68
2022/03/08 03:25:45;;;;;;;13.90;6.23;;;0.20;99.90;;;;;;5014110;28;20037;-68
2022/03/08 03:28:11;;;;;;;10.00;5.80;;;0.50;99.90;;;;;;5013655;28;20096;-68
2022/03/08 03:30:37;;;;;;;9.97;6.77;;;;;;;;;;5012109;28;20052;-68
2022/03/08 03:33:03;;;;;;;11.67;6.33;;;;;;;;;;5013597;28;20034;-68
2022/03/08 03:35:30;;;;;;;8.60;5.97;;;0.30;99.90;;;;;;5013787;28;20034;-68
2022/03/08 03:37:56;;;;;;;10.30;6.20;;;;;;;;;;5013389;28;20467;-68
2022/03/08 03:40:21;;;;;;;11.30;7.17;;;;;;;;;;5013748;28;20038;-68
2022/03/08 03:42:47;;;;;;;9.23;6.17;;;0.50;99.90;;;;;;5013617;28;21936;-68
2022/03/08 03:45:13;;;;;;;9.30;5.83;;;0.70;99.90;;;;;;5011822;28;20022;-68
2022/03/08 03:47:39;;;;;;;7.90;6.10;;;0.60;99.90;;;;;;5013770;28;20049;-68
2022/03/08 03:50:07;;;;;;;9.43;5.67;;;0.70;99.90;;;;;;5013013;28;20045;-68
2022/03/08 03:52:33;;;;;;;8.20;6.37;;;0.70;99.90;;;;;;5013593;28;20029;-68
2022/03/08 03:54:58;;;;;;;7.67;5.63;;;0.50;99.90;;;;;;5013136;28;20037;-68
2022/03/08 03:57:24;;;;;;;9.27;6.13;;;;;;;;;;5013524;28;20033;-68
2022/03/08 03:59:50;;;;;;;7.77;5.97;;;0.50;99.90;;;;;;5012559;28;20433;-68
2022/03/08 04:02:16;;;;;;;9.80;5.80;;;;;;;;;;5013408;28;20502;-68
2022/03/08 04:04:42;;;;;;;8.50;5.37;;;;;;;;;;5013165;28;20030;-68
2022/03/08 04:07:08;;;;;;;11.47;6.50;;;;;;;;;;5012833;28;20447;-68
2022/03/08 04:09:33;;;;;;;11.53;5.23;;;0.70;99.90;;;;;;5013264;28;20037;-68
2022/03/08 04:11:59;;;;;;;8.70;6.03;;;0.50;99.90;;;;;;5012602;28;20022;-68
2022/03/08 04:14:25;;;;;;;9.23;5.73;;;0.50;99.90;;;;;;5012885;28;20025;-68
2022/03/08 04:16:54;;;;;;;11.10;6.13;;;0.70;99.90;;;;;;5012622;28;20034;-68
2022/03/08 04:19:19;;;;;;;10.80;6.03;;;0.50;99.90;;;;;;5012785;28;20061;-68
2022/03/08 04:21:45;;;;;;;10.60;6.23;;;0.30;99.90;;;;;;5013050;28;20116;-68
2022/03/08 04:24:11;;;;;;;8.73;6.37;;;;;;;;;;5012446;28;20030;-68
2022/03/08 04:26:37;;;;;;;9.30;6.60;;;0.50;99.90;;;;;;5012565;28;20081;-68
2022/03/08 04:29:03;;;;;;;10.97;6.40;;;0.20;99.90;;;;;;5012320;28;20391;-68
2022/03/08 04:31:29;;;;;;;10.53;7.37;;;;;;;;;;5012768;28;20022;-68
2022/03/08 04:33:54;;;;;;;7.77;6.23;;;0.40;99.90;;;;;;5027942;28;20386;-67
2022/03/08 04:36:20;;;;;;;7.33;5.60;;;0.30;99.90;;;;;;5012671;28;20033;-67
2022/03/08 04:38:46;;;;;;;8.53;6.03;;;;;;;;;;5012521;28;20045;-68
2022/03/08 04:41:11;;;;;;;7.97;5.07;;;0.20;99.90;;;;;;5011891;28;20026;-67
2022/03/08 04:43:37;;;;;;;9.43;5.70;;;0.20;99.90;;;;;;5011219;28;20479;-68
2022/03/08 04:46:03;;;;;;;12.20;6.37;;;;;;;;;;5012231;28;20097;-68
2022/03/08 04:48:28;;;;;;;8.67;6.27;;;0.40;99.90;;;;;;5012086;28;20050;-68
2022/03/08 04:50:54;;;;;;;8.63;5.83;;;0.30;99.90;;;;;;5012105;28;20414;-67
2022/03/08 04:53:19;;;;;;;7.53;5.37;;;0.30;99.90;;;;;;5012248;28;20105;-68
2022/03/08 04:55:45;;;;;;;11.27;6.07;;;0.20;99.90;;;;;;5012023;28;20030;-68
2022/03/08 04:58:10;;;;;;;9.27;6.57;;;0.10;99.90;;;;;;5011960;28;20483;-68
2022/03/08 05:00:36;;;;;;;7.10;5.03;;;0.30;99.90;;;;;;5012227;28;20033;-68
2022/03/08 05:03:02;;;;;;;8.80;6.43;;;;;;;;;;5011736;28;20033;-68
2022/03/08 05:05:31;;;;;;;7.77;5.57;;;;;;;;;;5011889;28;20024;-70
2022/03/08 05:07:57;;;;;;;7.73;5.27;;;;;;;;;;5011836;28;20018;-67
2022/03/08 05:10:22;;;;;;;8.47;5.43;;;0.40;99.90;;;;;;5011655;28;20406;-68
2022/03/08 05:12:48;;;;;;;10.80;6.73;;;;;;;;;;5012075;28;20077;-68
2022/03/08 05:15:14;;;;;;;9.60;5.53;;;;;;;;;;5011619;28;20402;-68
2022/03/08 05:17:39;;;;;;;9.20;6.03;;;0.00;99.90;;;;;;5011849;28;20101;-68
2022/03/08 05:20:06;;;;;;;9.43;5.60;;;-0.10;99.90;;;;;;5011296;28;20080;-67
2022/03/08 05:22:32;;;;;;;6.80;4.47;;;;;;;;;;5011555;28;20033;-68
2022/03/08 05:24:58;;;;;;;8.43;5.63;;;-0.10;99.90;;;;;;5009856;28;20506;-69
2022/03/08 05:27:23;;;;;;;8.53;6.20;;;;;;;;;;5007717;28;20501;-68
2022/03/08 05:29:50;;;;;;;8.63;6.27;;;;;;;;;;5011026;28;20419;-68
2022/03/08 05:32:16;;;;;;;9.27;6.63;;;-0.30;99.90;;;;;;5011192;28;20386;-68
2022/03/08 05:34:42;;;;;;;10.00;6.50;;;-0.10;99.90;;;;;;5011523;28;20033;-68
2022/03/08 05:37:08;;;;;;;9.50;5.83;;;-0.20;99.90;;;;;;5011268;28;20025;-68
2022/03/08 05:39:33;;;;;;;7.67;5.63;;;-0.20;99.90;;;;;;5009059;28;20041;-68
2022/03/08 05:41:59;;;;;;;9.93;6.67;;;;;;;;;;5011274;28;20033;-68
2022/03/08 05:44:25;;;;;;;10.20;6.97;;;;;;;;;;5011043;28;20073;-68
2022/03/08 05:46:51;;;;;;;9.83;5.97;;;0.00;99.90;;;;;;5010619;28;20463;-69
2022/03/08 05:49:17;;;;;;;13.73;6.20;;;0.00;99.90;;;;;;5010881;28;20061;-68
2022/03/08 05:51:43;;;;;;;11.60;5.93;;;;;;;;;;5011418;28;20116;-68
2022/03/08 05:54:08;;;;;;;9.83;7.17;;;-0.20;99.90;;;;;;5010466;28;20593;-68
2022/03/08 05:56:34;;;;;;;10.73;8.17;;;;;;;;;;5011218;28;20152;-68
2022/03/08 05:59:00;;;;;;;9.43;6.93;;;0.10;99.90;;;;;;5009208;28;20026;-68
2022/03/08 06:01:25;;;;;;;9.20;6.73;;;-0.30;99.90;;;;;;5011021;28;20382;-68
2022/03/08 06:03:51;;;;;;;9.20;6.50;;;0.10;99.90;;;;;;5009554;28;20045;-68
2022/03/08 06:06:17;;;;;;;8.00;5.73;;;-0.30;99.90;;;;;;5011152;28;20030;-68
2022/03/08 06:08:43;;;;;;;12.07;7.13;;;;;;;;;;5010497;28;20036;-68
2022/03/08 06:11:08;;;;;;;9.73;7.37;;;-0.20;99.90;;;;;;5010726;28;20033;-68
2022/03/08 06:13:34;;;;;;;10.23;7.60;;;;;;;;;;5010501;28;20026;-68
2022/03/08 06:16:00;;;;;;;8.67;6.53;;;0.00;99.90;;;;;;5010733;28;20053;-68
2022/03/08 06:18:25;;;;;;;10.30;6.47;;;-0.20;99.90;;;;;;5010237;28;20032;-68
2022/03/08 06:20:51;;;;;;;13.77;8.03;;;-0.10;99.90;;;;;;5010355;28;20391;-68
2022/03/08 06:23:17;;;;;;;10.13;6.80;;;;;;;;;;5010028;28;20087;-68
2022/03/08 06:25:42;;;;;;;7.20;5.90;;;-0.20;99.90;;;;;;5010696;28;20459;-68
2022/03/08 06:28:08;;;;;;;7.60;5.70;;;-0.20;99.90;;;;;;5010339;28;20018;-68
2022/03/08 06:30:34;;;;;;;10.73;6.77;;;;;;;;;;5010618;28;20038;-68
2022/03/08 06:33:00;;;;;;;9.27;6.40;;;-0.20;99.90;;;;;;5010704;28;20180;-68
2022/03/08 06:35:26;;;;;;;7.97;6.93;;;;;;;;;;5009094;28;20076;-68
2022/03/08 06:37:51;;;;;;;10.50;8.23;;;-0.20;99.90;;;;;;5009725;28;20042;-68
2022/03/08 06:40:17;;;;;;;9.53;7.87;;;;;;;;;;5010446;28;20040;-68
2022/03/08 06:42:43;;;;;;;10.00;6.87;;;-0.10;99.90;;;;;;5010067;28;20037;-67
2022/03/08 06:45:09;;;;;;;12.27;7.77;;;0.00;99.90;;;;;;5010099;28;20104;-68
2022/03/08 06:47:38;;;;;;;12.63;8.27;;;0.00;99.90;;;;;;5010137;28;20038;-68
2022/03/08 06:50:04;;;;;;;12.50;8.10;;;;;;;;;;5009861;28;20045;-68
2022/03/08 06:52:29;;;;;;;12.03;7.50;;;0.10;99.90;;;;;;5009900;28;20040;-68
2022/03/08 06:54:55;;;;;;;9.03;7.23;;;;;;;;;;5010021;28;20101;-68
2022/03/08 06:57:21;;;;;;;11.57;7.50;;;;;;;;;;5008951;28;20537;-67
2022/03/08 06:59:47;;;;;;;12.13;7.77;;;;;;;;;;5010121;28;20780;-68
2022/03/08 07:02:13;;;;;;;12.23;7.03;;;0.40;99.90;;;;;;5010099;28;20025;-69
2022/03/08 07:04:38;;;;;;;11.53;8.53;;;0.70;99.90;;;;;;5008684;28;20041;-68
2022/03/08 07:07:04;;;;;;;11.07;8.57;;;0.50;99.90;;;;;;5009348;28;20070;-68
2022/03/08 07:09:30;;;;;;;11.80;7.60;;;0.70;99.90;;;;;;5008759;28;20445;-68
2022/03/08 07:11:55;;;;;;;10.63;8.00;;;;;;;;;;5008345;28;20033;-68
2022/03/08 07:14:21;;;;;;;12.00;7.83;;;0.70;99.90;;;;;;5008618;28;20022;-68
2022/03/08 07:16:48;;;;;;;14.10;7.87;;;0.90;99.90;;;;;;5009463;28;20398;-68
2022/03/08 07:19:13;;;;;;;12.10;7.50;;;1.00;99.90;;;;;;5009904;28;20139;-69
2022/03/08 07:21:48;;;;;;;11.03;7.43;;;1.00;99.90;;;;;;5009488;28;20105;-68
2022/03/08 07:24:14;;;;;;;10.23;7.30;;;1.40;99.90;;;;;;5009840;28;20034;-68
2022/03/08 07:26:40;;;;;;;11.03;7.67;;;1.40;99.90;;;;;;5009792;28;20032;-69
2022/03/08 07:29:06;;;;;;;9.27;6.87;;;1.40;99.90;;;;;;5009103;28;20030;-69
2022/03/08 07:31:32;;;;;;;10.97;8.60;;;;;;;;;;5008621;28;20045;-68
2022/03/08 07:33:59;;;;;;;9.43;6.93;;;1.70;99.90;;;;;;5009791;28;20422;-68
2022/03/08 07:36:25;;;;;;;10.53;7.13;;;1.60;99.90;;;;;;5007994;28;20068;-68
2022/03/08 07:38:51;;;;;;;10.57;7.27;;;;;;;;;;5009392;28;20030;-69
2022/03/08 07:41:16;;;;;;;9.67;7.40;;;1.60;99.90;;;;;;5009571;28;20468;-68
2022/03/08 07:43:42;;;;;;;13.00;7.33;;;1.90;99.90;;;;;;5007958;28;20454;-68
2022/03/08 07:46:08;;;;;;;9.47;7.43;;;1.70;99.90;;;;;;5009337;28;20042;-68
2022/03/08 07:48:34;;;;;;;9.80;7.07;;;;;;;;;;5009621;28;20049;-68
2022/03/08 07:51:00;;;;;;;9.70;7.40;;;2.00;99.90;;;;;;5008822;28;20029;-68
2022/03/08 07:53:26;;;;;;;9.60;7.30;;;2.50;99.90;;;;;;5009213;28;20121;-71
2022/03/08 07:55:51;;;;;;;10.13;7.63;;;2.20;99.90;;;;;;5009193;28;20041;-71
2022/03/08 07:58:17;;;;;;;9.17;7.20;;;2.40;99.90;;;;;;5007926;28;20061;-71
2022/03/08 08:00:43;;;;;;;12.57;7.40;;;2.30;99.90;;;;;;5008235;28;20038;-71
2022/03/08 08:03:09;;;;;;;14.00;7.63;;;2.40;99.90;;;;;;5007269;28;20111;-71
2022/03/08 08:05:36;;;;;;;9.93;6.23;;;2.50;99.40;;;;;;5002729;28;20038;-70
2022/03/08 08:08:04;;;;;;;9.87;7.07;;;2.60;99.00;;;;;;5006483;28;20038;-70
2022/03/08 08:10:30;;;;;;;10.93;6.83;;;2.90;99.90;;;;;;5010470;28;20022;-70
2022/03/08 08:12:56;;;;;;;11.70;7.03;;;;;;;;;;5011259;28;20076;-70
2022/03/08 08:15:21;;;;;;;8.67;6.40;;;2.90;99.90;;;;;;5009410;28;20495;-70
2022/03/08 08:17:47;;;;;;;9.03;7.10;;;3.00;99.90;;;;;;5011278;28;20469;-71
2022/03/08 08:20:13;;;;;;;7.70;6.47;;;3.20;99.90;;;;;;5009703;28;20029;-70
2022/03/08 08:22:38;;;;;;;8.10;6.47;;;3.40;99.40;;;;;;5011130;28;20382;-71
2022/03/08 08:25:08;;;;;;;10.40;6.30;;;3.40;97.10;;;;;;5010493;28;20037;-70
2022/03/08 08:27:35;;;;;;;10.20;6.27;;;;;;;;;;5010207;28;20503;-71
2022/03/08 08:30:00;;;;;;;9.43;6.30;;;3.60;99.90;;;;;;5010984;28;20162;-70
2022/03/08 08:32:26;;;;;;;8.90;5.43;;;;;;;;;;5011717;28;20114;-70
2022/03/08 08:34:52;;;;;;;9.23;6.30;;;3.60;99.90;;;;;;5010988;28;20116;-70
2022/03/08 08:37:18;;;;;;;11.07;5.73;;;;;;;;;;5011501;28;20505;-71
2022/03/08 08:39:43;;;;;;;10.40;7.07;;;4.00;99.90;;;;;;5011555;28;20030;-71
2022/03/08 08:42:09;;;;;;;6.57;5.40;;;;;;;;;;5010934;28;20040;-70
2022/03/08 08:44:35;;;;;;;7.40;6.20;;;4.10;99.90;;;;;;5011199;28;20128;-71
2022/03/08 08:47:01;;;;;;;9.93;5.93;;;4.20;96.40;;;;;;5011170;28;20105;-71
2022/03/08 08:49:28;;;;;;;7.60;6.13;;;4.00;99.00;;;;;;5010478;28;20062;-71
2022/03/08 08:51:54;;;;;;;8.20;7.27;;;;;;;;;;5011178;28;20538;-71
2022/03/08 08:54:19;;;;;;;7.87;5.93;;;4.20;99.90;;;;;;5010135;28;20919;-71
2022/03/08 08:56:45;;;;;;;7.60;5.80;;;;;;;;;;5012469;28;20034;-71
2022/03/08 08:59:10;;;;;;;8.57;6.03;;;4.50;99.90;;;;;;5011639;28;20034;-71
2022/03/08 09:01:36;;;;;;;7.63;6.30;;;4.50;99.90;;;;;;5012206;28;20025;-71
2022/03/08 09:04:03;;;;;;;9.57;6.57;;;4.70;96.80;;;;;;5011644;28;20042;-71
2022/03/08 09:06:28;;;;;;;6.50;5.20;;;;;;;;;;5012110;28;20101;-68
2022/03/08 09:08:56;;;;;;;11.73;5.77;;;4.60;99.90;;;;;;5011809;28;20543;-72
2022/03/08 09:11:22;;;;;;;7.27;5.37;;;4.70;99.90;;;;;;5011884;28;20455;-71
2022/03/08 09:13:48;;;;;;;9.13;6.20;;;;;;;;;;5011911;28;20065;-71
2022/03/08 09:16:15;;;;;;;6.80;5.27;;;5.00;99.90;;;;;;5011644;28;20030;-71
2022/03/08 09:18:41;;;;;;;7.77;6.20;;;5.10;99.90;;;;;;5011366;28;20034;-71
2022/03/08 09:21:06;;;;;;;8.47;6.30;;;5.20;99.90;;;;;;5010514;28;20026;-71
2022/03/08 09:23:32;;;;;;;10.03;7.00;;;5.10;99.90;;;;;;5011522;28;20042;-71
2022/03/08 09:25:58;;;;;;;7.67;5.60;;;;;;;;;;5011524;28;20018;-71
2022/03/08 09:28:23;;;;;;;6.67;4.97;;;5.10;99.90;;;;;;5011240;28;20033;-71
2022/03/08 09:30:49;;;;;;;7.00;5.53;;;5.20;97.20;;;;;;5011480;28;20148;-70
2022/03/08 09:33:15;;;;;;;7.23;5.97;;;;;;;;;;5010998;28;20025;-70
2022/03/08 09:35:40;;;;;;;10.77;6.37;;;5.50;99.60;;;;;;5011483;28;20034;-71
2022/03/08 09:38:06;;;;;;;10.20;6.17;;;5.90;99.60;;;;;;5009862;28;20036;-71
2022/03/08 09:40:32;;;;;;;8.57;6.37;;;5.50;99.40;;;;;;4999707;28;20033;-70
2022/03/08 09:42:58;;;;;;;8.63;5.70;;;;;;;;;;4993646;28;20025;-70
2022/03/08 09:45:24;;;;;;;10.60;6.37;;;5.50;99.10;;;;;;5003477;28;20037;-70
2022/03/08 09:47:51;;;;;;;6.10;5.30;;;;;;;;;;5010523;28;20049;-70
2022/03/08 09:50:16;;;;;;;9.70;6.13;;;5.60;98.20;;;;;;5010840;28;20503;-71
2022/03/08 09:52:42;;;;;;;7.67;5.97;;;5.70;95.40;;;;;;5011298;28;20084;-71
2022/03/08 09:55:14;;;;;;;7.33;5.40;;;5.70;98.70;;;;;;5010910;28;20771;-71
2022/03/08 09:57:40;;;;;;;6.70;5.30;;;;;;;;;;5011165;28;20014;-71
2022/03/08 10:00:07;;;;;;;9.33;6.67;;;6.00;97.80;;;;;;5010547;28;20029;-71
2022/03/08 10:02:49;;;;;;;8.27;5.83;;;5.90;97.90;;;;;;5009527;28;20026;-72
2022/03/08 10:05:16;;;;;;;7.00;5.57;;;5.60;92.40;;;;;;5010865;28;20030;-71
2022/03/08 10:08:11;;;;;;;8.83;6.17;;;6.20;94.70;;;;;;5008285;28;20092;-71
2022/03/08 10:10:43;;;;;;;;;;;6.10;90.80;;;;;;5011377;28;20042;-71
2022/03/08 10:13:10;;;;;;;9.37;6.33;;;6.10;90.90;;;;;;5010063;28;20289;-71
2022/03/08 10:15:36;;;;;;;7.40;5.33;;;6.40;97.90;;;;;;5009827;28;20022;-71
2022/03/08 10:18:02;;;;;;;8.47;5.70;;;5.90;97.50;;;;;;5009196;28;20033;-71
2022/03/08 10:20:31;;;;;;;8.33;6.00;;;6.30;97.50;;;;;;5010360;28;20100;-70
2022/03/08 10:22:57;;;;;;;6.50;4.77;;;6.40;97.30;;;;;;5008738;28;20026;-70
2022/03/08 10:25:25;;;;;;;8.50;6.00;;;6.50;90.40;;;;;;5010159;28;20063;-71
2022/03/08 10:27:54;;;;;;;8.67;6.10;;;6.70;93.70;;;;;;5009563;28;20037;-70
2022/03/08 10:30:20;;;;;;;7.57;4.50;;;6.60;96.40;;;;;;5009855;28;20033;-71
2022/03/08 10:32:46;;;;;;;5.43;4.63;;;6.80;94.70;;;;;;5010426;28;20133;-70
2022/03/08 10:35:24;;;;;;;7.73;5.23;;;6.90;96.20;;;;;;5010434;28;20076;-70
2022/03/08 10:37:50;;;;;;;8.50;5.67;;;7.10;92.00;;;;;;5010377;28;20045;-71
2022/03/08 10:40:24;;;;;;;6.50;5.20;;;6.80;95.50;;;;;;5010163;28;20064;-70
2022/03/08 10:43:14;;;;;;;6.47;4.65;;;6.90;87.10;;;;;;5010310;28;20053;-70
2022/03/08 10:45:51;;;;;;;7.07;6.03;;;7.00;87.10;;;;;;5007494;28;20042;-70
2022/03/08 10:48:18;;;;;;;10.93;4.50;;;7.20;95.30;;;;;;5009372;28;20064;-71
2022/03/08 10:50:45;;;;;;;8.17;5.00;;;7.10;86.10;;;;;;4990524;28;20113;-70
2022/03/08 10:53:12;;;;;;;5.20;4.70;;;7.30;93.30;;;;;;5009279;28;20040;-70
2022/03/08 10:55:49;;;;;;;6.47;4.20;;;7.20;95.00;;;;;;5024418;28;20171;-70
2022/03/08 10:58:17;;;;;;;9.37;4.50;;;6.90;94.90;;;;;;5008940;28;20564;-70
2022/03/08 11:00:46;;;;;;;6.13;4.60;;;7.50;94.50;;;;;;4994407;28;20147;-70
2022/03/08 11:03:14;;;;;;;5.63;4.10;;;7.70;93.80;;;;;;5009820;28;20030;-70
2022/03/08 11:05:43;;;;;;;7.40;3.57;;;7.60;93.60;;;;;;5009927;28;20037;-71
2022/03/08 11:08:09;;;;;;;6.17;3.07;;;7.60;91.00;;;;;;5009317;28;20030;-71
2022/03/08 11:10:36;;;;;;;11.13;3.80;;;7.70;80.90;;;;;;5009563;28;20171;-71
2022/03/08 11:13:04;;;;;;;4.90;3.57;;;7.80;92.50;;;;;;5008590;28;20080;-71
2022/03/08 11:15:32;;;;;;;10.13;3.83;;;7.50;89.00;;;;;;5009437;28;20463;-71
2022/03/08 11:17:59;;;;;;;4.67;3.40;;;7.70;92.10;;;;;;5008988;28;20030;-71
2022/03/08 11:20:27;;;;;;;8.63;4.00;;;7.40;92.10;;;;;;5009319;28;20420;-70
2022/03/08 11:22:57;;;;;;;4.63;3.23;;;8.00;92.10;;;;;;5009311;28;20114;-71
2022/03/08 11:25:27;;;;;;;7.23;3.93;;;7.80;79.70;;;;;;5009585;28;20513;-71
2022/03/08 11:27:54;;;;;;;6.13;3.97;;;8.00;92.00;;;;;;5007576;28;20026;-70
2022/03/08 11:30:29;;;;;;;5.33;3.83;;;7.40;79.30;;;;;;5008447;28;20053;-71
2022/03/08 11:33:19;;;;;;;4.80;3.70;;;7.70;91.60;;;;;;5009323;28;20124;-71
2022/03/08 11:36:16;;;;;;;3.53;2.70;;;7.70;91.70;;;;;;5008987;28;20030;-71
2022/03/08 11:38:42;;;;;;;5.03;2.73;;;7.80;85.70;;;;;;4996443;28;20026;-71
2022/03/08 11:41:08;;;;;;;7.57;4.00;;;;;;;;;;5008761;28;20342;-71
2022/03/08 11:43:42;;;;;;;6.10;3.60;;;8.20;91.00;;;;;;5009694;28;20033;-71
2022/03/08 11:46:14;;;;;;;5.37;3.70;;;8.10;91.10;;;;;;5013371;28;20053;-71
2022/03/08 11:48:55;;;;;;;7.73;4.10;;;8.20;81.30;;;;;;5013222;28;20442;-71
2022/03/08 11:51:23;;;;;;;4.00;3.53;;;8.10;87.60;;;;;;5012817;28;20040;-71
2022/03/08 11:54:07;;;;;;;6.13;4.13;;;8.10;76.00;;;;;;5012998;28;20026;-71
2022/03/08 11:56:54;;;;;;;6.82;4.30;;;8.10;90.70;;;;;;5012702;28;20045;-71
2022/03/08 11:59:20;;;;;;;7.07;3.17;;;8.10;90.60;;;;;;5013324;28;20042;-71
2022/03/08 12:01:47;;;;;;;5.33;3.43;;;;;;;;;;5012409;28;20033;-71
2022/03/08 12:04:18;;;;;;;6.47;3.60;;;8.10;90.70;;;;;;5012842;28;20367;-71
2022/03/08 12:06:53;;;;;;;5.50;4.00;;;8.10;75.30;;;;;;5013195;28;20188;-71
2022/03/08 12:09:21;;;;;;;7.90;4.63;;;8.30;89.60;;;;;;5012993;28;20026;-71
2022/03/08 12:12:03;;;;;;;8.03;4.77;;;8.20;89.00;;;;;;5012438;28;20701;-71
2022/03/08 12:14:38;;;;;;;3.83;2.97;;;8.30;88.90;;;;;;5010295;28;20034;-70
2022/03/08 12:17:11;;;;;;;4.67;3.17;;;8.50;90.20;;;;;;5012106;28;20036;-70
2022/03/08 12:19:38;;;;;;;6.77;4.00;;;8.60;90.20;;;;;;5011469;28;20029;-71
2022/03/08 12:22:31;;;;;;;5.87;3.97;;;8.00;90.10;;;;;;5012339;28;20034;-71
2022/03/08 12:24:59;;;;;;;5.03;4.07;;;8.30;75.40;;;;;;5012191;28;20104;-72
2022/03/08 12:27:45;;;;;;;5.47;3.50;;;8.30;75.30;;;;;;5012399;28;20026;-71
2022/03/08 12:30:10;;;;;;;7.67;3.97;;;8.50;90.30;;;;;;5011516;28;20060;-71
2022/03/08 12:32:42;;;;;;;4.83;3.47;;;8.50;90.20;;;;;;5012494;28;20435;-71
2022/03/08 12:35:13;;;;;;;9.30;4.40;;;8.60;90.40;;;;;;5011862;28;20045;-71
2022/03/08 12:37:39;;;;;;;6.23;3.07;;;8.50;90.30;;;;;;5012176;28;20088;-71
2022/03/08 12:40:09;;;;;;;6.70;4.90;;;8.60;89.80;;;;;;5011760;28;20026;-71
2022/03/08 12:42:35;;;;;;;7.20;4.10;;;;;;;;;;5012695;28;20034;-72
2022/03/08 12:45:15;;;;;;;5.67;3.53;;;8.80;83.00;;;;;;5012131;28;20041;-71
2022/03/08 12:47:48;;;;;;;5.30;4.63;;;8.60;79.70;;;;;;5012471;28;20022;-71
2022/03/08 12:50:16;;;;;;;4.50;3.73;;;8.90;89.30;;;;;;5011873;28;20042;-71
2022/03/08 12:52:54;;;;;;;3.70;3.40;;;8.70;88.90;;;;;;5012507;28;20056;-70
2022/03/08 12:55:23;;;;;;;8.60;3.87;;;8.80;73.90;;;;;;5010108;28;20022;-71
2022/03/08 12:58:04;;;;;;;5.70;3.23;;;8.60;85.80;;;;;;5010160;28;20132;-72
2022/03/08 13:00:41;;;;;;;8.97;4.10;;;8.90;85.90;;;;;;5011680;28;20172;-72
2022/03/08 13:03:12;;;;;;;5.90;3.43;;;8.80;78.80;;;;;;5011417;28;20022;-72
2022/03/08 13:05:51;;;;;;;8.03;4.90;;;8.80;71.90;;;;;;5011861;28;20036;-71
2022/03/08 13:08:20;;;;;;;17.37;4.67;;;9.00;88.90;;;;;;5011764;28;20502;-72
2022/03/08 13:10:50;;;;;;;3.37;3.03;;;8.90;89.00;;;;;;5011166;28;20101;-71
2022/03/08 13:13:16;;;;;;;6.67;3.73;;;8.90;89.10;;;;;;5012079;28;20030;-71